Time;durP1;ratioP1;P1;durP2;ratioP2;P2;SDS_P1;SDS_P2;PMS_P1;PMS_P2;Temp;Humidity;BMP_temperature;BMP_pressure;BME280_temperature;BME280_humidity;BME280_pressure;Samples;Min_cycle;Max_cycle;Signal;HPM_P1;HPM_P2
2021/04/07 00:01:49;;;;;;;13.00;2.90;;;3.50;99.90;;;;;;5021559;28;20521;-75
2021/04/07 00:04:15;;;;;;;11.63;1.93;;;3.60;99.90;;;;;;5022520;28;20213;-75
2021/04/07 00:06:43;;;;;;;8.93;2.00;;;3.60;99.90;;;;;;5022126;28;20957;-77
2021/04/07 00:09:10;;;;;;;12.30;3.67;;;3.50;99.90;;;;;;5040479;28;20205;-76
2021/04/07 00:11:37;;;;;;;11.97;2.93;;;3.30;99.90;;;;;;5025970;28;20246;-77
2021/04/07 00:14:09;;;;;;;10.03;2.43;;;3.20;99.90;;;;;;5021173;28;20780;-77
2021/04/07 00:16:35;;;;;;;4.73;1.80;;;3.10;99.90;;;;;;5020884;28;20296;-78
2021/04/07 00:19:01;;;;;;;7.07;1.50;;;3.00;99.90;;;;;;5021763;28;20198;-76
2021/04/07 00:21:28;;;;;;;10.87;2.23;;;2.90;99.90;;;;;;5021041;28;20199;-78
2021/04/07 00:23:55;;;;;;;8.60;1.70;;;2.80;99.90;;;;;;5020866;28;20202;-76
2021/04/07 00:26:22;;;;;;;7.83;1.83;;;2.70;99.90;;;;;;5020712;28;20207;-74
2021/04/07 00:28:48;;;;;;;10.83;1.83;;;2.70;99.90;;;;;;5021496;28;20206;-75
2021/04/07 00:31:14;;;;;;;11.00;1.90;;;2.70;99.90;;;;;;5021107;28;20229;-77
2021/04/07 00:33:40;;;;;;;11.67;1.93;;;2.60;99.90;;;;;;5021238;28;20203;-75
2021/04/07 00:36:07;;;;;;;11.53;2.20;;;2.70;99.90;;;;;;5021427;28;20202;-78
2021/04/07 00:38:33;;;;;;;7.10;1.50;;;2.80;99.90;;;;;;5039997;28;20213;-78
2021/04/07 00:41:01;;;;;;;13.87;1.80;;;2.80;99.90;;;;;;5041250;28;20208;-77
2021/04/07 00:43:27;;;;;;;8.93;2.00;;;2.80;99.90;;;;;;5040763;28;20633;-75
2021/04/07 00:45:53;;;;;;;7.87;1.80;;;2.80;99.90;;;;;;5032314;28;20230;-77
2021/04/07 00:48:20;;;;;;;9.97;1.90;;;2.70;99.90;;;;;;5021196;28;20214;-77
2021/04/07 00:50:47;;;;;;;16.77;2.87;;;2.60;99.90;;;;;;5020823;28;20214;-77
2021/04/07 00:53:13;;;;;;;8.73;3.20;;;2.60;99.90;;;;;;5020835;28;20225;-78
2021/04/07 00:55:44;;;;;;;12.53;2.60;;;2.70;99.90;;;;;;5021502;28;20614;-78
2021/04/07 00:58:12;;;;;;;10.73;2.20;;;2.70;99.90;;;;;;5020873;28;20206;-76
2021/04/07 01:00:39;;;;;;;11.57;2.63;;;2.90;99.90;;;;;;5021095;28;20202;-78
2021/04/07 01:03:07;;;;;;;12.77;3.00;;;3.00;99.90;;;;;;5021618;28;20202;-78
2021/04/07 01:05:34;;;;;;;15.13;3.40;;;3.00;99.90;;;;;;5020909;28;20834;-77
2021/04/07 01:08:00;;;;;;;15.37;2.50;;;3.10;99.90;;;;;;5032837;28;20209;-79
2021/04/07 01:10:27;;;;;;;26.10;3.57;;;3.20;99.90;;;;;;5041148;28;20209;-79
2021/04/07 01:12:54;;;;;;;10.83;2.37;;;3.20;99.90;;;;;;5040248;28;20770;-78
2021/04/07 01:15:21;;;;;;;7.07;1.20;;;3.30;99.90;;;;;;5025126;28;20211;-78
2021/04/07 01:17:48;;;;;;;6.80;1.57;;;3.40;99.90;;;;;;5020965;28;20223;-77
2021/04/07 01:20:17;;;;;;;7.77;1.50;;;3.30;99.90;;;;;;5020568;28;20216;-78
2021/04/07 01:22:47;;;;;;;8.23;2.17;;;3.20;99.90;;;;;;5021076;28;20209;-78
2021/04/07 01:25:15;;;;;;;12.00;2.20;;;3.20;99.90;;;;;;5021283;28;20190;-77
2021/04/07 01:27:42;;;;;;;12.03;2.60;;;3.20;99.90;;;;;;5020046;28;20214;-76
2021/04/07 01:30:10;;;;;;;13.33;2.50;;;3.20;99.90;;;;;;5020828;28;20202;-78
2021/04/07 01:32:37;;;;;;;19.07;3.30;;;3.20;99.90;;;;;;5020132;28;20227;-78
2021/04/07 01:35:04;;;;;;;19.50;3.27;;;3.20;99.90;;;;;;5019850;28;20203;-78
2021/04/07 01:37:33;;;;;;;15.60;3.40;;;3.20;99.90;;;;;;5020684;28;20202;-77
2021/04/07 01:40:00;;;;;;;14.30;3.97;;;3.40;99.90;;;;;;5020630;28;20578;-78
2021/04/07 01:42:28;;;;;;;20.23;4.00;;;3.40;99.90;;;;;;5020096;28;20309;-75
2021/04/07 01:44:55;;;;;;;25.67;4.17;;;3.20;99.90;;;;;;5020332;28;20199;-77
2021/04/07 01:47:21;;;;;;;21.83;5.70;;;3.30;99.90;;;;;;5020179;28;20213;-77
2021/04/07 01:49:48;;;;;;;27.63;5.10;;;3.40;99.90;;;;;;5020905;28;20207;-77
2021/04/07 01:52:14;;;;;;;22.30;4.47;;;3.50;99.90;;;;;;5020440;28;20238;-77
2021/04/07 01:54:41;;;;;;;23.00;4.50;;;3.60;99.90;;;;;;5020731;28;20225;-77
2021/04/07 01:57:09;;;;;;;14.00;3.27;;;3.70;99.90;;;;;;5021250;28;20213;-76
2021/04/07 01:59:36;;;;;;;29.37;5.20;;;3.80;99.90;;;;;;5023795;28;20208;-75
2021/04/07 02:02:02;;;;;;;18.53;4.00;;;3.90;99.90;;;;;;5023407;28;20202;-76
2021/04/07 02:04:28;;;;;;;13.60;3.37;;;3.90;99.90;;;;;;5024392;28;20202;-77
2021/04/07 02:06:55;;;;;;;15.97;3.53;;;3.80;99.90;;;;;;5027150;28;20237;-78
2021/04/07 02:09:22;;;;;;;16.53;5.10;;;3.80;99.90;;;;;;5042124;28;20198;-78
2021/04/07 02:11:50;;;;;;;11.83;2.77;;;3.80;99.90;;;;;;5044155;28;20222;-78
2021/04/07 02:14:17;;;;;;;16.73;3.77;;;3.70;99.90;;;;;;5044109;28;20544;-77
2021/04/07 02:16:50;;;;;;;18.93;3.07;;;3.70;99.90;;;;;;5036793;28;20223;-75
2021/04/07 02:19:16;;;;;;;16.90;4.20;;;3.70;99.90;;;;;;5024578;28;20574;-76
2021/04/07 02:21:42;;;;;;;16.87;4.27;;;3.60;99.90;;;;;;5023829;28;20199;-77
2021/04/07 02:24:09;;;;;;;12.87;1.97;;;3.50;99.90;;;;;;5023584;28;20203;-77
2021/04/07 02:26:35;;;;;;;16.60;2.83;;;3.50;99.90;;;;;;5023655;28;20940;-79
2021/04/07 02:29:02;;;;;;;9.57;2.50;;;3.50;99.90;;;;;;5023915;28;20776;-78
2021/04/07 02:31:28;;;;;;;4.20;1.03;;;3.40;99.90;;;;;;5023542;28;20268;-77
2021/04/07 02:33:55;;;;;;;7.10;1.30;;;3.20;99.90;;;;;;5023498;28;20202;-78
2021/04/07 02:36:21;;;;;;;16.93;3.30;;;3.10;99.90;;;;;;5023799;28;20606;-76
2021/04/07 02:38:47;;;;;;;12.90;3.73;;;3.10;99.90;;;;;;5023258;28;20206;-80
2021/04/07 02:41:14;;;;;;;10.20;2.17;;;3.10;99.90;;;;;;5023671;28;20217;-79
2021/04/07 02:43:40;;;;;;;6.17;2.03;;;3.20;99.90;;;;;;5022985;28;20197;-80
2021/04/07 02:46:06;;;;;;;8.77;2.80;;;3.20;99.90;;;;;;5022903;28;20218;-79
2021/04/07 02:48:32;;;;;;;8.57;2.10;;;3.20;99.90;;;;;;5026223;28;20201;-79
2021/04/07 02:51:00;;;;;;;9.63;1.70;;;3.20;99.90;;;;;;5043948;28;20251;-79
2021/04/07 02:53:26;;;;;;;9.23;2.30;;;3.30;99.90;;;;;;5031948;28;20228;-78
2021/04/07 02:55:52;;;;;;;11.43;2.40;;;3.20;99.90;;;;;;5023978;28;20248;-79
2021/04/07 02:58:18;;;;;;;16.07;3.10;;;3.20;99.90;;;;;;5023050;28;20195;-81
2021/04/07 03:00:45;;;;;;;12.77;2.33;;;3.20;99.90;;;;;;5023485;28;20207;-79
2021/04/07 03:03:11;;;;;;;13.50;2.70;;;3.20;99.90;;;;;;5024297;28;20979;-80
2021/04/07 03:05:37;;;;;;;12.50;2.50;;;3.20;99.90;;;;;;5022016;28;20614;-80
2021/04/07 03:08:04;;;;;;;9.50;2.43;;;3.20;99.90;;;;;;5029942;28;20206;-79
2021/04/07 03:10:31;;;;;;;9.10;2.13;;;3.20;99.90;;;;;;5028592;28;20202;-79
2021/04/07 03:12:57;;;;;;;13.60;2.53;;;3.20;99.90;;;;;;5021722;28;20280;-80
2021/04/07 03:15:24;;;;;;;13.60;3.73;;;3.10;99.90;;;;;;5023664;28;20284;-79
2021/04/07 03:17:50;;;;;;;14.97;2.47;;;3.10;99.90;;;;;;5033649;28;20226;-78
2021/04/07 03:20:17;;;;;;;15.87;3.87;;;3.00;99.90;;;;;;5043065;28;20215;-78
2021/04/07 03:22:43;;;;;;;13.60;3.60;;;3.10;99.90;;;;;;5035312;28;20198;-79
2021/04/07 03:25:12;;;;;;;17.83;3.50;;;3.10;99.90;;;;;;5023172;28;20210;-76
2021/04/07 03:27:38;;;;;;;10.63;4.03;;;3.10;99.90;;;;;;5037087;28;20271;-78
2021/04/07 03:30:05;;;;;;;11.13;2.53;;;3.20;99.90;;;;;;5038602;28;20260;-78
2021/04/07 03:32:32;;;;;;;13.00;3.17;;;3.20;99.90;;;;;;5023554;28;20218;-80
2021/04/07 03:34:59;;;;;;;11.63;1.93;;;3.10;99.90;;;;;;5022381;28;20203;-79
2021/04/07 03:37:25;;;;;;;18.90;3.33;;;3.10;99.90;;;;;;5023666;28;20210;-77
2021/04/07 03:39:51;;;;;;;22.13;4.23;;;3.10;99.90;;;;;;5022787;28;20289;-78
2021/04/07 03:42:19;;;;;;;19.43;4.10;;;3.20;99.90;;;;;;5022344;28;20256;-77
2021/04/07 03:44:45;;;;;;;14.63;3.53;;;3.20;99.90;;;;;;5023265;28;20265;-78
2021/04/07 03:47:11;;;;;;;15.90;3.07;;;3.30;99.90;;;;;;5022894;28;20211;-81
2021/04/07 03:49:37;;;;;;;20.40;3.73;;;3.30;99.90;;;;;;5022511;28;20753;-79
2021/04/07 03:52:04;;;;;;;16.67;3.60;;;3.40;99.90;;;;;;5021826;28;20248;-78
2021/04/07 03:54:30;;;;;;;16.80;3.80;;;3.50;99.90;;;;;;5021972;28;20203;-77
2021/04/07 03:56:57;;;;;;;16.93;4.17;;;3.70;99.90;;;;;;5022669;28;20210;-79
2021/04/07 03:59:24;;;;;;;19.37;4.37;;;3.80;99.90;;;;;;5022557;28;20632;-78
2021/04/07 04:01:50;;;;;;;21.17;4.17;;;3.80;99.90;;;;;;5021896;28;20203;-78
2021/04/07 04:04:16;;;;;;;36.73;7.23;;;3.90;99.90;;;;;;5021277;28;20613;-77
2021/04/07 04:06:45;;;;;;;23.50;5.13;;;4.00;99.90;;;;;;5023137;28;20252;-79
2021/04/07 04:09:11;;;;;;;24.27;5.87;;;4.20;99.90;;;;;;5041505;28;20231;-78
2021/04/07 04:11:37;;;;;;;27.50;6.37;;;4.30;99.90;;;;;;5028739;28;20927;-77
2021/04/07 04:14:04;;;;;;;33.77;7.23;;;4.40;99.90;;;;;;5022273;28;20203;-79
2021/04/07 04:16:31;;;;;;;34.20;6.03;;;4.60;99.90;;;;;;5021288;28;20284;-80
2021/04/07 04:18:57;;;;;;;27.77;4.43;;;4.70;99.90;;;;;;5022018;28;20207;-75
2021/04/07 04:21:23;;;;;;;19.77;5.07;;;4.80;99.90;;;;;;5027420;28;20303;-75
2021/04/07 04:23:50;;;;;;;16.33;3.13;;;4.80;99.90;;;;;;5041799;28;20210;-77
2021/04/07 04:26:16;;;;;;;25.40;5.57;;;4.80;99.90;;;;;;5041268;28;20194;-79
2021/04/07 04:28:42;;;;;;;34.40;6.23;;;4.90;99.90;;;;;;5034958;28;20198;-79
2021/04/07 04:31:08;;;;;;;37.37;6.43;;;4.90;99.90;;;;;;5021358;28;20222;-76
2021/04/07 04:33:36;;;;;;;32.17;6.57;;;5.00;99.90;;;;;;5030157;28;20661;-80
2021/04/07 04:36:03;;;;;;;32.30;5.80;;;5.10;99.90;;;;;;5040680;28;20208;-78
2021/04/07 04:38:29;;;;;;;42.43;7.93;;;5.10;99.90;;;;;;5041626;28;20817;-77
2021/04/07 04:40:55;;;;;;;24.40;6.47;;;5.10;99.90;;;;;;5041684;28;20616;-76
2021/04/07 04:43:21;;;;;;;28.57;6.17;;;5.20;99.90;;;;;;5029692;28;20238;-78
2021/04/07 04:45:48;;;;;;;42.13;7.30;;;5.30;99.90;;;;;;5021574;28;20202;-79
2021/04/07 04:48:14;;;;;;;32.27;6.77;;;5.30;99.90;;;;;;5022134;28;20210;-78
2021/04/07 04:50:41;;;;;;;37.60;7.10;;;5.40;99.90;;;;;;5022018;28;20238;-79
2021/04/07 04:53:07;;;;;;;54.80;9.03;;;5.40;99.90;;;;;;5022344;28;20226;-79
2021/04/07 04:55:34;;;;;;;35.40;7.80;;;5.40;99.90;;;;;;5021870;28;20685;-78
2021/04/07 04:58:00;;;;;;;35.73;7.30;;;5.50;99.90;;;;;;5021358;28;20202;-78
2021/04/07 05:00:26;;;;;;;37.83;7.10;;;5.50;99.90;;;;;;5021405;28;20661;-78
2021/04/07 05:02:52;;;;;;;39.00;7.37;;;5.60;99.90;;;;;;5021821;28;20286;-79
2021/04/07 05:05:19;;;;;;;43.50;7.27;;;5.60;99.90;;;;;;5021052;28;20234;-81
2021/04/07 05:07:47;;;;;;;36.13;7.77;;;5.60;99.90;;;;;;5022485;28;20206;-76
2021/04/07 05:10:13;;;;;;;49.43;10.47;;;5.70;99.90;;;;;;5021100;28;20202;-77
2021/04/07 05:12:39;;;;;;;42.67;8.03;;;5.70;99.90;;;;;;5020810;28;20233;-79
2021/04/07 05:15:07;;;;;;;39.47;7.20;;;5.70;99.90;;;;;;5021066;28;20206;-75
2021/04/07 05:17:36;;;;;;;45.17;9.30;;;5.70;99.90;;;;;;5021234;28;20230;-75
2021/04/07 05:20:04;;;;;;;47.40;11.53;;;5.70;99.90;;;;;;5020079;28;20211;-77
2021/04/07 05:22:31;;;;;;;40.43;9.10;;;5.80;99.90;;;;;;5020618;28;20195;-76
2021/04/07 05:24:58;;;;;;;40.40;7.37;;;5.80;99.90;;;;;;5023277;28;20233;-76
2021/04/07 05:27:27;;;;;;;30.97;6.93;;;5.80;99.90;;;;;;5039933;28;20871;-77
2021/04/07 05:29:54;;;;;;;36.93;7.77;;;5.80;99.90;;;;;;5033028;28;20272;-79
2021/04/07 05:32:20;;;;;;;54.03;8.43;;;5.80;99.90;;;;;;5022245;28;20228;-77
2021/04/07 05:34:46;;;;;;;32.60;7.07;;;5.90;99.90;;;;;;5025424;28;20213;-78
2021/04/07 05:37:12;;;;;;;38.57;6.97;;;5.90;99.90;;;;;;5025275;28;20264;-79
2021/04/07 05:39:38;;;;;;;43.73;9.03;;;5.90;99.90;;;;;;5044010;28;20217;-78
2021/04/07 05:42:06;;;;;;;48.73;7.80;;;5.90;99.90;;;;;;5045538;28;20234;-79
2021/04/07 05:44:32;;;;;;;45.80;7.30;;;5.90;99.90;;;;;;5045399;28;20275;-78
2021/04/07 05:46:59;;;;;;;28.77;6.57;;;5.90;99.90;;;;;;5038501;28;20644;-77
2021/04/07 05:49:26;;;;;;;34.57;7.07;;;6.00;99.90;;;;;;5024327;28;20209;-78
2021/04/07 05:51:52;;;;;;;31.87;6.57;;;6.00;99.90;;;;;;5023781;28;20685;-77
2021/04/07 05:54:19;;;;;;;29.13;6.50;;;6.00;99.90;;;;;;5023513;28;20641;-78
2021/04/07 05:56:45;;;;;;;41.83;8.60;;;6.10;99.90;;;;;;5024319;28;20199;-79
2021/04/07 05:59:12;;;;;;;33.00;8.47;;;6.10;99.90;;;;;;5024016;28;20194;-77
2021/04/07 06:01:38;;;;;;;35.53;7.17;;;6.20;99.90;;;;;;5023483;28;20210;-78
2021/04/07 06:04:05;;;;;;;37.47;7.47;;;6.20;99.90;;;;;;5024227;28;20675;-78
2021/04/07 06:06:31;;;;;;;30.53;7.87;;;6.20;99.90;;;;;;5024575;28;20199;-79
2021/04/07 06:08:58;;;;;;;28.27;6.00;;;6.20;99.90;;;;;;5036914;28;20932;-80
2021/04/07 06:11:24;;;;;;;33.23;6.73;;;6.30;99.90;;;;;;5024481;28;20376;-78
2021/04/07 06:13:50;;;;;;;32.20;8.57;;;6.30;99.90;;;;;;5024325;28;20230;-80
2021/04/07 06:16:17;;;;;;;38.47;6.87;;;6.30;99.90;;;;;;5023147;28;20234;-76
2021/04/07 06:18:44;;;;;;;35.20;8.13;;;6.30;99.90;;;;;;5023839;28;20217;-81
2021/04/07 06:21:11;;;;;;;32.07;6.73;;;6.30;99.90;;;;;;5024561;28;20217;-79
2021/04/07 06:23:37;;;;;;;44.40;6.50;;;6.30;99.90;;;;;;5023637;28;20205;-77
2021/04/07 06:26:03;;;;;;;33.57;6.60;;;6.40;99.90;;;;;;5023659;28;20218;-77
2021/04/07 06:28:30;;;;;;;42.47;8.73;;;6.40;99.90;;;;;;5024707;28;20276;-75
2021/04/07 06:30:56;;;;;;;27.53;6.73;;;6.40;99.90;;;;;;5023603;28;20532;-78
2021/04/07 06:33:25;;;;;;;35.57;8.13;;;6.40;99.90;;;;;;5023988;28;20233;-77
2021/04/07 06:35:53;;;;;;;40.67;7.10;;;6.40;99.90;;;;;;5023332;28;20235;-76
2021/04/07 06:38:20;;;;;;;48.73;8.37;;;6.40;99.90;;;;;;5023703;28;20234;-78
2021/04/07 06:40:48;;;;;;;35.47;7.00;;;6.50;99.90;;;;;;5023386;28;20542;-77
2021/04/07 06:43:16;;;;;;;36.83;6.43;;;6.50;99.90;;;;;;5022456;28;20234;-78
2021/04/07 06:45:42;;;;;;;34.90;7.00;;;6.60;99.90;;;;;;5022927;28;20206;-80
2021/04/07 06:48:10;;;;;;;34.60;6.73;;;6.60;99.90;;;;;;5023821;28;20214;-78
2021/04/07 06:50:38;;;;;;;33.63;6.67;;;6.70;99.90;;;;;;5022985;28;20914;-79
2021/04/07 06:53:07;;;;;;;37.43;9.50;;;6.80;99.90;;;;;;5023022;28;20225;-79
2021/04/07 06:55:34;;;;;;;24.77;6.87;;;6.80;99.90;;;;;;5024056;28;20202;-78
2021/04/07 06:58:02;;;;;;;33.17;6.63;;;6.80;99.90;;;;;;5022976;28;20844;-77
2021/04/07 07:00:29;;;;;;;25.63;6.17;;;6.70;99.90;;;;;;5023286;28;20206;-77
2021/04/07 07:03:00;;;;;;;34.70;6.97;;;6.70;99.90;;;;;;5023081;28;20264;-77
2021/04/07 07:05:27;;;;;;;35.17;6.83;;;6.70;99.90;;;;;;5023006;28;20198;-78
2021/04/07 07:08:00;;;;;;;30.43;9.37;;;6.70;99.90;;;;;;5024741;28;20202;-77
2021/04/07 07:10:37;;;;;;;36.90;7.23;;;6.70;99.90;;;;;;5022136;28;20217;-81
2021/04/07 07:13:04;;;;;;;36.33;7.70;;;6.70;99.90;;;;;;5023776;28;20279;-83
2021/04/07 07:21:00;;;;;;;30.10;6.23;;;6.70;99.90;;;;;;5071326;22;20245;-79
2021/04/07 07:23:29;;;;;;;31.87;5.33;;;6.70;99.90;;;;;;5042507;28;20201;-80
2021/04/07 07:25:57;;;;;;;23.63;5.37;;;6.60;99.90;;;;;;5036172;28;20229;-76
2021/04/07 07:28:24;;;;;;;17.03;4.43;;;6.50;99.90;;;;;;5022557;28;20207;-79
2021/04/07 07:30:50;;;;;;;21.50;4.90;;;6.50;99.90;;;;;;5021913;28;20954;-78
2021/04/07 07:33:18;;;;;;;32.77;7.83;;;6.50;99.90;;;;;;5021885;28;20630;-79
2021/04/07 07:35:45;;;;;;;32.80;5.93;;;6.60;99.90;;;;;;5022627;28;20209;-80
2021/04/07 07:38:12;;;;;;;29.67;5.87;;;6.70;99.90;;;;;;5022825;28;20385;-78
2021/04/07 07:40:40;;;;;;;34.40;6.83;;;6.80;99.90;;;;;;5022041;28;20357;-79
2021/04/07 07:43:07;;;;;;;32.77;5.60;;;6.90;99.90;;;;;;5022912;28;20845;-80
2021/04/07 07:45:36;;;;;;;28.57;6.13;;;7.00;99.90;;;;;;5021993;28;20245;-80
2021/04/07 07:48:07;;;;;;;27.03;4.90;;;7.10;99.90;;;;;;5021344;28;20211;-79
2021/04/07 07:50:39;;;;;;;32.23;6.53;;;7.20;99.90;;;;;;5022492;28;20191;-80
2021/04/07 07:53:13;;;;;;;44.80;7.37;;;7.30;99.90;;;;;;5021583;28;20296;-79
2021/04/07 07:55:41;;;;;;;37.70;6.80;;;7.40;99.90;;;;;;5020941;28;20197;-80
2021/04/07 07:58:07;;;;;;;31.23;5.97;;;7.50;99.90;;;;;;5021943;28;20202;-78
2021/04/07 08:00:34;;;;;;;44.37;7.73;;;7.50;99.90;;;;;;5021349;28;20206;-77
2021/04/07 08:03:11;;;;;;;31.07;6.03;;;7.40;99.90;;;;;;5020762;28;20210;-78
2021/04/07 08:05:39;;;;;;;27.17;6.40;;;7.40;99.90;;;;;;5022323;28;20285;-78
2021/04/07 08:08:07;;;;;;;29.97;5.93;;;7.20;99.90;;;;;;5020703;28;20198;-79
2021/04/07 08:10:36;;;;;;;33.43;7.00;;;7.10;99.90;;;;;;5021106;28;20202;-76
2021/04/07 08:13:05;;;;;;;33.60;7.17;;;7.20;99.90;;;;;;5021312;28;20321;-78
2021/04/07 08:15:32;;;;;;;28.17;5.80;;;7.20;99.90;;;;;;5020741;28;20295;-79
2021/04/07 08:17:59;;;;;;;42.43;6.77;;;7.20;99.90;;;;;;5021176;28;20198;-79
2021/04/07 08:20:26;;;;;;;29.33;6.33;;;7.30;99.90;;;;;;5021120;28;20238;-79
2021/04/07 08:22:54;;;;;;;36.93;7.80;;;7.40;99.90;;;;;;5021681;28;20587;-78
2021/04/07 08:25:21;;;;;;;34.13;7.07;;;7.30;99.90;;;;;;5022091;28;20195;-79
2021/04/07 08:27:51;;;;;;;28.73;7.27;;;7.30;99.90;;;;;;5022581;28;20744;-78
2021/04/07 08:30:20;;;;;;;34.87;7.57;;;7.40;99.90;;;;;;5021274;28;20301;-79
2021/04/07 08:32:49;;;;;;;32.70;7.77;;;7.50;99.90;;;;;;5021295;28;20571;-81
2021/04/07 08:35:17;;;;;;;24.73;5.90;;;7.60;99.90;;;;;;5021890;28;20662;-80
2021/04/07 08:37:43;;;;;;;23.30;6.07;;;7.50;99.90;;;;;;5021310;28;20214;-80
2021/04/07 08:40:14;;;;;;;24.47;5.80;;;7.30;99.90;;;;;;5021967;28;20277;-76
2021/04/07 08:42:41;;;;;;;23.63;5.20;;;7.20;99.90;;;;;;5021423;28;20253;-75
2021/04/07 08:45:09;;;;;;;23.13;5.10;;;7.20;99.90;;;;;;5020648;28;20217;-77
2021/04/07 08:47:43;;;;;;;22.50;4.87;;;7.10;99.90;;;;;;5020372;28;20567;-79
2021/04/07 08:50:11;;;;;;;19.80;4.87;;;7.30;99.90;;;;;;5020534;28;20629;-78
2021/04/07 08:52:43;;;;;;;21.73;5.03;;;7.40;99.90;;;;;;5019968;28;20719;-79
2021/04/07 08:55:15;;;;;;;22.03;4.93;;;7.50;99.90;;;;;;5021549;28;20199;-80
2021/04/07 08:57:42;;;;;;;22.40;4.67;;;7.70;99.90;;;;;;5020474;28;20205;-79
2021/04/07 09:00:13;;;;;;;22.03;4.70;;;8.00;99.90;;;;;;5020837;28;20198;-79
2021/04/07 09:02:51;;;;;;;22.37;4.93;;;8.10;99.90;;;;;;5021311;28;20207;-78
2021/04/07 09:05:28;;;;;;;20.23;4.20;;;8.00;99.90;;;;;;5019814;28;20271;-82
2021/04/07 09:07:56;;;;;;;26.13;5.40;;;8.00;99.90;;;;;;5045683;28;20196;-79
2021/04/07 09:10:23;;;;;;;19.90;5.10;;;7.90;99.90;;;;;;5064585;28;20212;-82
2021/04/07 09:12:51;;;;;;;25.67;4.53;;;7.80;99.90;;;;;;5064627;28;20229;-79
2021/04/07 09:15:20;;;;;;;20.37;4.77;;;7.70;99.90;;;;;;5059008;28;20232;-78
2021/04/07 09:17:51;;;;;;;20.93;5.97;;;7.80;99.90;;;;;;5024883;28;20887;-79
2021/04/07 09:20:41;;;;;;;27.90;5.67;;;7.80;99.90;;;;;;5025307;28;20242;-78
2021/04/07 09:23:21;;;;;;;16.80;4.50;;;8.10;99.90;;;;;;5024356;28;20202;-78
2021/04/07 09:25:50;;;;;;;21.63;5.53;;;8.00;99.90;;;;;;5024117;28;20202;-76
2021/04/07 09:28:17;;;;;;;27.00;5.33;;;7.90;99.90;;;;;;5025222;28;20860;-79
2021/04/07 09:30:47;;;;;;;21.87;4.90;;;7.80;99.90;;;;;;5024626;28;20225;-78
2021/04/07 09:33:17;;;;;;;24.43;5.43;;;7.80;99.90;;;;;;5024009;28;20369;-79
2021/04/07 09:35:57;;;;;;;26.53;5.17;;;7.80;99.90;;;;;;5024186;28;20202;-79
2021/04/07 09:38:24;;;;;;;28.57;5.97;;;7.80;99.90;;;;;;5023586;28;20218;-78
2021/04/07 09:41:02;;;;;;;28.23;7.70;;;7.80;99.90;;;;;;5023960;28;20603;-79
2021/04/07 09:43:29;;;;;;;22.93;5.27;;;7.70;99.90;;;;;;5024747;28;20190;-78
2021/04/07 09:45:55;;;;;;;20.47;4.37;;;7.60;99.90;;;;;;5023742;28;20206;-78
2021/04/07 09:48:33;;;;;;;23.17;5.83;;;7.60;99.90;;;;;;5024527;28;20202;-80
2021/04/07 09:50:59;;;;;;;23.57;4.70;;;7.60;99.90;;;;;;5024718;28;20218;-78
2021/04/07 09:53:29;;;;;;;25.83;5.67;;;7.60;99.90;;;;;;5024681;28;20226;-79
2021/04/07 09:56:01;;;;;;;16.87;4.77;;;7.60;99.90;;;;;;5025039;28;20225;-81
2021/04/07 09:58:27;;;;;;;24.27;5.40;;;7.50;99.90;;;;;;5025532;28;20203;-80
2021/04/07 10:00:55;;;;;;;18.73;4.63;;;7.50;99.90;;;;;;5025210;28;20208;-80
2021/04/07 10:03:23;;;;;;;21.53;4.97;;;7.50;99.90;;;;;;5025884;28;20199;-81
2021/04/07 10:05:49;;;;;;;20.03;5.13;;;7.60;99.90;;;;;;5045085;28;20271;-81
2021/04/07 10:08:20;;;;;;;18.40;4.73;;;7.60;99.90;;;;;;5058701;28;20220;-80
2021/04/07 10:10:46;;;;;;;24.07;4.87;;;7.60;99.90;;;;;;5066314;28;20630;-80
2021/04/07 10:13:13;;;;;;;24.67;5.33;;;7.60;99.90;;;;;;5061404;28;20230;-81
2021/04/07 10:15:39;;;;;;;20.73;5.37;;;7.70;99.90;;;;;;5045847;28;20237;-78
2021/04/07 10:18:07;;;;;;;20.33;4.10;;;7.80;99.90;;;;;;5044701;28;20213;-81
2021/04/07 10:20:35;;;;;;;22.80;4.67;;;7.70;99.90;;;;;;5031405;28;20709;-81
2021/04/07 10:23:07;;;;;;;16.43;5.30;;;7.80;99.90;;;;;;5023665;28;20639;-79
2021/04/07 10:25:34;;;;;;;19.40;4.30;;;7.70;99.90;;;;;;5024157;28;20547;-79
2021/04/07 10:28:00;;;;;;;22.33;3.70;;;7.70;99.90;;;;;;5035330;28;20213;-81
2021/04/07 10:30:27;;;;;;;16.07;4.03;;;7.80;99.90;;;;;;5045851;28;20241;-79
2021/04/07 10:32:55;;;;;;;20.00;5.47;;;7.80;99.90;;;;;;5044937;28;20379;-81
2021/04/07 10:35:24;;;;;;;20.60;3.73;;;7.80;99.90;;;;;;5033515;28;20217;-82
2021/04/07 10:37:53;;;;;;;24.73;5.17;;;7.80;99.90;;;;;;5024051;28;20237;-83
2021/04/07 10:40:21;;;;;;;16.27;3.90;;;7.80;99.90;;;;;;5025570;28;20213;-80
2021/04/07 10:42:48;;;;;;;15.87;4.10;;;7.70;99.90;;;;;;5024551;28;20660;-82
2021/04/07 10:45:17;;;;;;;16.10;4.00;;;7.60;99.90;;;;;;5032349;28;20563;-80
2021/04/07 10:47:43;;;;;;;18.93;4.10;;;7.50;99.90;;;;;;5044169;28;20629;-83
2021/04/07 10:50:10;;;;;;;15.60;4.23;;;7.50;99.90;;;;;;5041985;28;20263;-82
2021/04/07 10:52:38;;;;;;;20.00;3.53;;;7.50;99.90;;;;;;5043619;28;20940;-82
2021/04/07 10:55:09;;;;;;;15.97;3.77;;;7.40;99.90;;;;;;5042213;28;20212;-81
2021/04/07 10:57:37;;;;;;;18.83;3.40;;;7.50;99.90;;;;;;5059240;28;20209;-80
2021/04/07 11:00:07;;;;;;;16.00;3.33;;;7.50;99.90;;;;;;5036581;28;20218;-82
2021/04/07 11:02:44;;;;;;;24.53;4.20;;;7.50;99.90;;;;;;5025012;28;20210;-82
2021/04/07 11:05:14;;;;;;;14.80;4.00;;;7.40;99.90;;;;;;5024172;28;20260;-81
2021/04/07 11:07:40;;;;;;;20.00;3.67;;;7.30;99.90;;;;;;5041944;28;20357;-81
2021/04/07 11:10:09;;;;;;;18.50;3.77;;;7.30;99.90;;;;;;5064712;28;20225;-82
2021/04/07 11:12:35;;;;;;;13.93;2.67;;;7.20;99.90;;;;;;5032384;28;20214;-81
2021/04/07 11:15:04;;;;;;;14.17;2.63;;;7.10;99.90;;;;;;5023929;28;20218;-81
2021/04/07 11:17:30;;;;;;;9.47;2.20;;;7.00;99.90;;;;;;5023870;28;20206;-81
2021/04/07 11:19:57;;;;;;;16.60;3.20;;;7.00;99.90;;;;;;5024137;28;20350;-81
2021/04/07 11:22:23;;;;;;;16.33;3.23;;;7.00;99.90;;;;;;5023643;28;20645;-81
2021/04/07 11:24:49;;;;;;;13.57;3.30;;;7.00;99.90;;;;;;5028496;28;20197;-82
2021/04/07 11:27:17;;;;;;;14.33;3.23;;;7.00;99.90;;;;;;5044128;28;20213;-82
2021/04/07 11:29:43;;;;;;;13.90;3.37;;;7.00;99.90;;;;;;5040185;28;20218;-81
2021/04/07 11:32:11;;;;;;;15.10;2.87;;;7.10;99.90;;;;;;5024137;28;20297;-80
2021/04/07 11:34:41;;;;;;;16.97;3.13;;;7.20;99.90;;;;;;5023874;28;20689;-80
2021/04/07 11:37:18;;;;;;;7.00;2.70;;;7.30;99.90;;;;;;5022893;28;20607;-81
2021/04/07 11:39:51;;;;;;;18.00;3.10;;;7.50;99.90;;;;;;5022339;28;20520;-78
2021/04/07 11:42:21;;;;;;;14.57;4.20;;;7.70;99.90;;;;;;5023285;28;20206;-80
2021/04/07 11:44:48;;;;;;;16.93;4.20;;;8.00;99.90;;;;;;5022970;28;20210;-81
2021/04/07 11:47:14;;;;;;;11.10;2.93;;;8.30;99.90;;;;;;5023022;28;20209;-81
2021/04/07 11:49:41;;;;;;;11.47;2.83;;;8.50;99.90;;;;;;5023656;28;20210;-82
2021/04/07 11:52:08;;;;;;;12.63;2.70;;;8.60;99.90;;;;;;5023225;28;20209;-81
2021/04/07 11:54:34;;;;;;;14.67;3.93;;;8.60;99.90;;;;;;5022827;28;20522;-81
2021/04/07 11:57:03;;;;;;;16.13;3.30;;;8.70;99.90;;;;;;5022705;28;20203;-85
2021/04/07 11:59:32;;;;;;;13.27;3.63;;;8.70;99.90;;;;;;5023752;28;20301;-82
2021/04/07 12:02:00;;;;;;;9.57;2.20;;;8.50;99.90;;;;;;5023775;28;20202;-81
2021/04/07 12:04:27;;;;;;;11.63;2.50;;;8.50;99.90;;;;;;5037131;28;20312;-80
2021/04/07 12:06:54;;;;;;;12.07;2.80;;;8.40;99.90;;;;;;5045961;28;20209;-81
2021/04/07 12:09:20;;;;;;;15.80;3.03;;;8.50;99.90;;;;;;5064593;28;20201;-80
2021/04/07 12:11:47;;;;;;;16.67;2.67;;;8.60;99.90;;;;;;5063258;28;20920;-79
2021/04/07 12:14:14;;;;;;;16.97;4.40;;;8.60;99.90;;;;;;5027707;28;20246;-81
2021/04/07 12:16:41;;;;;;;14.60;3.43;;;8.50;99.90;;;;;;5023149;28;20225;-82
2021/04/07 12:19:09;;;;;;;15.57;3.60;;;8.50;99.90;;;;;;5023052;28;20302;-81
2021/04/07 12:21:36;;;;;;;16.93;3.30;;;8.50;99.90;;;;;;5022221;28;20209;-81
2021/04/07 12:24:02;;;;;;;19.27;5.40;;;8.60;99.90;;;;;;5039557;28;20205;-81
2021/04/07 12:26:29;;;;;;;16.93;3.70;;;8.40;99.90;;;;;;5042899;28;20205;-83
2021/04/07 12:28:56;;;;;;;14.33;2.93;;;8.30;99.90;;;;;;5038185;28;20214;-80
2021/04/07 12:31:24;;;;;;;10.10;2.87;;;8.30;99.90;;;;;;5022608;28;20657;-81
2021/04/07 12:33:53;;;;;;;10.30;2.30;;;8.30;99.90;;;;;;5021748;28;20699;-80
2021/04/07 12:36:21;;;;;;;8.03;2.70;;;8.20;99.90;;;;;;5022745;28;20311;-81
2021/04/07 12:38:47;;;;;;;13.83;2.53;;;8.10;99.90;;;;;;5022377;28;20685;-79
2021/04/07 12:41:21;;;;;;;13.13;2.83;;;8.00;99.90;;;;;;5021996;28;20881;-82
2021/04/07 12:43:47;;;;;;;9.70;2.60;;;8.10;99.90;;;;;;5022839;28;20199;-81
2021/04/07 12:46:14;;;;;;;8.60;2.40;;;8.20;99.90;;;;;;5036326;28;20598;-83
2021/04/07 12:48:43;;;;;;;16.97;2.60;;;8.30;99.90;;;;;;5041215;28;20213;-81
2021/04/07 12:51:10;;;;;;;13.37;2.73;;;8.40;99.90;;;;;;5022749;28;20219;-80
2021/04/07 12:53:37;;;;;;;9.57;2.20;;;8.40;99.90;;;;;;5020556;28;20223;-80
2021/04/07 12:56:03;;;;;;;12.90;3.30;;;8.30;99.90;;;;;;5020800;28;20209;-81